sensor_id;sensor_type;location;lat;lon;timestamp;temperature;humidity
27954;DHT22;15290;48.148;17.106;2022-12-07T00:00:42;5.40;99.90
27954;DHT22;15290;48.148;17.106;2022-12-07T00:03:07;5.50;99.90
27954;DHT22;15290;48.148;17.106;2022-12-07T00:05:33;5.40;99.90
27954;DHT22;15290;48.148;17.106;2022-12-07T00:07:59;5.40;99.90
27954;DHT22;15290;48.148;17.106;2022-12-07T00:10:24;5.40;99.90
27954;DHT22;15290;48.148;17.106;2022-12-07T00:12:50;5.50;99.90
27954;DHT22;15290;48.148;17.106;2022-12-07T00:15:16;5.50;99.90
27954;DHT22;15290;48.148;17.106;2022-12-07T00:17:41;5.50;99.90
27954;DHT22;15290;48.148;17.106;2022-12-07T00:20:07;5.50;99.90
27954;DHT22;15290;48.148;17.106;2022-12-07T00:22:33;5.50;99.90
27954;DHT22;15290;48.148;17.106;2022-12-07T00:24:59;5.50;99.90
27954;DHT22;15290;48.148;17.106;2022-12-07T00:27:24;5.50;99.90
27954;DHT22;15290;48.148;17.106;2022-12-07T00:29:50;5.40;99.90
27954;DHT22;15290;48.148;17.106;2022-12-07T00:32:16;5.50;99.90
27954;DHT22;15290;48.148;17.106;2022-12-07T00:34:41;5.50;99.90
27954;DHT22;15290;48.148;17.106;2022-12-07T00:37:07;5.40;99.90
27954;DHT22;15290;48.148;17.106;2022-12-07T00:39:34;5.40;99.90
27954;DHT22;15290;48.148;17.106;2022-12-07T00:41:59;5.40;99.90
27954;DHT22;15290;48.148;17.106;2022-12-07T00:44:27;5.40;99.90
27954;DHT22;15290;48.148;17.106;2022-12-07T00:46:52;5.40;99.90
27954;DHT22;15290;48.148;17.106;2022-12-07T00:49:18;5.40;99.90
27954;DHT22;15290;48.148;17.106;2022-12-07T00:51:44;5.50;99.90
27954;DHT22;15290;48.148;17.106;2022-12-07T00:54:09;5.50;99.90
27954;DHT22;15290;48.148;17.106;2022-12-07T00:56:35;5.50;99.90
27954;DHT22;15290;48.148;17.106;2022-12-07T00:59:02;5.50;99.90
27954;DHT22;15290;48.148;17.106;2022-12-07T01:01:34;5.50;99.90
27954;DHT22;15290;48.148;17.106;2022-12-07T01:04:01;5.60;99.90
27954;DHT22;15290;48.148;17.106;2022-12-07T01:06:28;5.60;99.90
27954;DHT22;15290;48.148;17.106;2022-12-07T01:08:54;5.60;99.90
27954;DHT22;15290;48.148;17.106;2022-12-07T01:11:26;5.70;99.90
27954;DHT22;15290;48.148;17.106;2022-12-07T01:13:55;5.60;99.90
27954;DHT22;15290;48.148;17.106;2022-12-07T01:16:24;5.70;99.90
27954;DHT22;15290;48.148;17.106;2022-12-07T01:18:52;5.60;99.90
27954;DHT22;15290;48.148;17.106;2022-12-07T01:21:27;5.60;99.90
27954;DHT22;15290;48.148;17.106;2022-12-07T01:23:53;5.70;99.90
27954;DHT22;15290;48.148;17.106;2022-12-07T01:26:21;5.70;99.90
27954;DHT22;15290;48.148;17.106;2022-12-07T01:28:48;5.70;99.90
27954;DHT22;15290;48.148;17.106;2022-12-07T01:31:16;5.80;99.90
27954;DHT22;15290;48.148;17.106;2022-12-07T01:33:43;5.80;99.90
27954;DHT22;15290;48.148;17.106;2022-12-07T01:38:54;5.80;99.90
27954;DHT22;15290;48.148;17.106;2022-12-07T01:41:23;5.80;99.90
27954;DHT22;15290;48.148;17.106;2022-12-07T01:44:10;5.80;99.90
27954;DHT22;15290;48.148;17.106;2022-12-07T01:46:36;5.80;99.90
27954;DHT22;15290;48.148;17.106;2022-12-07T01:49:08;5.70;99.90
27954;DHT22;15290;48.148;17.106;2022-12-07T01:51:37;5.70;99.90
27954;DHT22;15290;48.148;17.106;2022-12-07T01:54:04;5.60;99.90
27954;DHT22;15290;48.148;17.106;2022-12-07T01:56:30;5.60;99.90
27954;DHT22;15290;48.148;17.106;2022-12-07T01:58:58;5.60;99.90
27954;DHT22;15290;48.148;17.106;2022-12-07T02:01:25;5.50;99.90
27954;DHT22;15290;48.148;17.106;2022-12-07T02:03:51;5.50;99.90
27954;DHT22;15290;48.148;17.106;2022-12-07T02:06:22;5.50;99.90
27954;DHT22;15290;48.148;17.106;2022-12-07T02:08:50;5.50;99.90
27954;DHT22;15290;48.148;17.106;2022-12-07T02:11:16;5.50;99.90
27954;DHT22;15290;48.148;17.106;2022-12-07T02:13:43;5.50;99.90
27954;DHT22;15290;48.148;17.106;2022-12-07T02:21:33;5.40;99.90
27954;DHT22;15290;48.148;17.106;2022-12-07T02:24:10;5.30;99.90
27954;DHT22;15290;48.148;17.106;2022-12-07T02:26:56;5.30;99.90
27954;DHT22;15290;48.148;17.106;2022-12-07T02:29:50;5.30;99.90
27954;DHT22;15290;48.148;17.106;2022-12-07T02:35:01;5.20;99.90
27954;DHT22;15290;48.148;17.106;2022-12-07T02:37:40;5.20;99.90
27954;DHT22;15290;48.148;17.106;2022-12-07T02:42:57;5.20;99.90
27954;DHT22;15290;48.148;17.106;2022-12-07T02:45:25;5.20;99.90
27954;DHT22;15290;48.148;17.106;2022-12-07T02:47:56;5.10;99.90
27954;DHT22;15290;48.148;17.106;2022-12-07T02:50:24;5.10;99.90
27954;DHT22;15290;48.148;17.106;2022-12-07T02:52:50;5.10;99.90
27954;DHT22;15290;48.148;17.106;2022-12-07T02:55:17;5.00;99.90
27954;DHT22;15290;48.148;17.106;2022-12-07T03:00:26;5.10;99.90
27954;DHT22;15290;48.148;17.106;2022-12-07T03:13:37;5.40;99.90
27954;DHT22;15290;48.148;17.106;2022-12-07T03:16:09;5.40;99.90
27954;DHT22;15290;48.148;17.106;2022-12-07T03:18:40;5.50;99.90
27954;DHT22;15290;48.148;17.106;2022-12-07T03:21:13;5.50;99.90
27954;DHT22;15290;48.148;17.106;2022-12-07T03:23:42;5.50;99.90
27954;DHT22;15290;48.148;17.106;2022-12-07T03:26:12;5.50;99.90
27954;DHT22;15290;48.148;17.106;2022-12-07T03:28:43;5.50;99.90
27954;DHT22;15290;48.148;17.106;2022-12-07T03:31:24;5.50;99.90
27954;DHT22;15290;48.148;17.106;2022-12-07T03:33:59;5.50;99.90
27954;DHT22;15290;48.148;17.106;2022-12-07T03:37:00;5.50;99.90
27954;DHT22;15290;48.148;17.106;2022-12-07T03:39:57;5.50;99.90
27954;DHT22;15290;48.148;17.106;2022-12-07T03:42:24;5.50;99.90
27954;DHT22;15290;48.148;17.106;2022-12-07T03:44:50;5.50;99.90
27954;DHT22;15290;48.148;17.106;2022-12-07T03:47:31;5.60;99.90
27954;DHT22;15290;48.148;17.106;2022-12-07T03:50:05;5.60;99.90
27954;DHT22;15290;48.148;17.106;2022-12-07T03:52:44;5.60;99.90
27954;DHT22;15290;48.148;17.106;2022-12-07T03:55:20;5.50;99.90
27954;DHT22;15290;48.148;17.106;2022-12-07T03:57:50;5.50;99.90
27954;DHT22;15290;48.148;17.106;2022-12-07T04:00:17;5.60;99.90
27954;DHT22;15290;48.148;17.106;2022-12-07T04:02:43;5.50;99.90
27954;DHT22;15290;48.148;17.106;2022-12-07T04:05:10;5.50;99.90
27954;DHT22;15290;48.148;17.106;2022-12-07T04:07:36;5.50;99.90
27954;DHT22;15290;48.148;17.106;2022-12-07T04:10:03;5.60;99.90
27954;DHT22;15290;48.148;17.106;2022-12-07T04:12:29;5.50;99.90
27954;DHT22;15290;48.148;17.106;2022-12-07T04:14:55;5.60;99.90
27954;DHT22;15290;48.148;17.106;2022-12-07T04:17:20;5.60;99.90
27954;DHT22;15290;48.148;17.106;2022-12-07T04:19:46;5.60;99.90
27954;DHT22;15290;48.148;17.106;2022-12-07T04:22:12;5.60;99.90
27954;DHT22;15290;48.148;17.106;2022-12-07T04:24:38;5.60;99.90
27954;DHT22;15290;48.148;17.106;2022-12-07T04:27:04;5.60;99.90
27954;DHT22;15290;48.148;17.106;2022-12-07T04:29:30;5.60;99.90
27954;DHT22;15290;48.148;17.106;2022-12-07T04:31:59;5.60;99.90
27954;DHT22;15290;48.148;17.106;2022-12-07T04:34:24;5.60;99.90
27954;DHT22;15290;48.148;17.106;2022-12-07T04:36:50;5.60;99.90
27954;DHT22;15290;48.148;17.106;2022-12-07T04:39:31;5.60;99.90
27954;DHT22;15290;48.148;17.106;2022-12-07T04:41:58;5.60;99.90
27954;DHT22;15290;48.148;17.106;2022-12-07T04:44:25;5.60;99.90
27954;DHT22;15290;48.148;17.106;2022-12-07T04:46:51;5.50;99.90
27954;DHT22;15290;48.148;17.106;2022-12-07T04:49:18;5.60;99.90
27954;DHT22;15290;48.148;17.106;2022-12-07T04:51:45;5.50;99.90
27954;DHT22;15290;48.148;17.106;2022-12-07T04:54:11;5.60;99.90
27954;DHT22;15290;48.148;17.106;2022-12-07T04:56:37;5.50;99.90
27954;DHT22;15290;48.148;17.106;2022-12-07T04:59:03;5.50;99.90
27954;DHT22;15290;48.148;17.106;2022-12-07T05:01:29;5.50;99.90
27954;DHT22;15290;48.148;17.106;2022-12-07T05:03:55;5.50;99.90
27954;DHT22;15290;48.148;17.106;2022-12-07T05:06:21;5.50;99.90
27954;DHT22;15290;48.148;17.106;2022-12-07T05:08:49;5.50;99.90
27954;DHT22;15290;48.148;17.106;2022-12-07T05:11:15;5.50;99.90
27954;DHT22;15290;48.148;17.106;2022-12-07T05:14:01;5.50;99.90
27954;DHT22;15290;48.148;17.106;2022-12-07T05:16:27;5.60;99.90
27954;DHT22;15290;48.148;17.106;2022-12-07T05:18:53;5.50;99.90
27954;DHT22;15290;48.148;17.106;2022-12-07T05:21:18;5.50;99.90
27954;DHT22;15290;48.148;17.106;2022-12-07T05:23:44;5.50;99.90
27954;DHT22;15290;48.148;17.106;2022-12-07T05:26:10;5.50;99.90
27954;DHT22;15290;48.148;17.106;2022-12-07T05:28:35;5.60;99.90
27954;DHT22;15290;48.148;17.106;2022-12-07T05:31:02;5.60;99.90
27954;DHT22;15290;48.148;17.106;2022-12-07T05:33:28;5.50;99.90
27954;DHT22;15290;48.148;17.106;2022-12-07T05:35:54;5.50;99.90
27954;DHT22;15290;48.148;17.106;2022-12-07T05:38:20;5.50;99.90
27954;DHT22;15290;48.148;17.106;2022-12-07T05:40:45;5.60;99.90
27954;DHT22;15290;48.148;17.106;2022-12-07T05:43:11;5.60;99.90
27954;DHT22;15290;48.148;17.106;2022-12-07T05:45:36;5.60;99.90
27954;DHT22;15290;48.148;17.106;2022-12-07T05:48:02;5.60;99.90
27954;DHT22;15290;48.148;17.106;2022-12-07T05:50:29;5.60;99.90
27954;DHT22;15290;48.148;17.106;2022-12-07T05:52:55;5.60;99.90
27954;DHT22;15290;48.148;17.106;2022-12-07T05:55:20;5.60;99.90
27954;DHT22;15290;48.148;17.106;2022-12-07T05:57:46;5.60;99.90
27954;DHT22;15290;48.148;17.106;2022-12-07T06:00:31;5.60;99.90
27954;DHT22;15290;48.148;17.106;2022-12-07T06:02:56;5.60;99.90
27954;DHT22;15290;48.148;17.106;2022-12-07T06:05:23;5.60;99.90
27954;DHT22;15290;48.148;17.106;2022-12-07T06:07:49;5.60;99.90
27954;DHT22;15290;48.148;17.106;2022-12-07T06:10:15;5.60;99.90
27954;DHT22;15290;48.148;17.106;2022-12-07T06:12:41;5.70;99.90
27954;DHT22;15290;48.148;17.106;2022-12-07T06:15:10;5.70;99.90
27954;DHT22;15290;48.148;17.106;2022-12-07T06:17:39;5.70;99.90
27954;DHT22;15290;48.148;17.106;2022-12-07T06:20:05;5.70;99.90
27954;DHT22;15290;48.148;17.106;2022-12-07T06:22:33;5.70;99.90
27954;DHT22;15290;48.148;17.106;2022-12-07T06:24:58;5.60;99.90
27954;DHT22;15290;48.148;17.106;2022-12-07T06:27:24;5.60;99.90
27954;DHT22;15290;48.148;17.106;2022-12-07T06:29:50;5.60;99.90
27954;DHT22;15290;48.148;17.106;2022-12-07T06:32:15;5.60;99.90
27954;DHT22;15290;48.148;17.106;2022-12-07T06:34:41;5.60;99.90
27954;DHT22;15290;48.148;17.106;2022-12-07T06:37:07;5.60;99.90
27954;DHT22;15290;48.148;17.106;2022-12-07T06:39:33;5.60;99.90
27954;DHT22;15290;48.148;17.106;2022-12-07T06:41:58;5.60;99.90
27954;DHT22;15290;48.148;17.106;2022-12-07T06:44:24;5.70;99.90
27954;DHT22;15290;48.148;17.106;2022-12-07T06:46:51;5.70;99.90
27954;DHT22;15290;48.148;17.106;2022-12-07T06:49:18;5.80;99.90
27954;DHT22;15290;48.148;17.106;2022-12-07T06:51:44;5.80;99.90
27954;DHT22;15290;48.148;17.106;2022-12-07T06:54:11;5.80;99.90
27954;DHT22;15290;48.148;17.106;2022-12-07T06:56:37;5.90;99.90
27954;DHT22;15290;48.148;17.106;2022-12-07T06:59:04;5.90;99.90
27954;DHT22;15290;48.148;17.106;2022-12-07T07:01:30;5.90;99.90
27954;DHT22;15290;48.148;17.106;2022-12-07T07:03:56;6.00;99.90
27954;DHT22;15290;48.148;17.106;2022-12-07T07:06:22;6.00;99.90
27954;DHT22;15290;48.148;17.106;2022-12-07T07:08:48;6.00;99.90
27954;DHT22;15290;48.148;17.106;2022-12-07T07:11:13;6.00;99.90
27954;DHT22;15290;48.148;17.106;2022-12-07T07:13:39;6.10;99.90
27954;DHT22;15290;48.148;17.106;2022-12-07T07:16:07;6.00;99.90
27954;DHT22;15290;48.148;17.106;2022-12-07T07:18:34;6.10;99.90
27954;DHT22;15290;48.148;17.106;2022-12-07T07:21:00;6.10;99.90
27954;DHT22;15290;48.148;17.106;2022-12-07T07:23:26;6.20;99.90
27954;DHT22;15290;48.148;17.106;2022-12-07T07:25:52;6.20;99.90
27954;DHT22;15290;48.148;17.106;2022-12-07T07:28:18;6.20;99.90
27954;DHT22;15290;48.148;17.106;2022-12-07T07:30:44;6.20;99.90
27954;DHT22;15290;48.148;17.106;2022-12-07T07:33:10;6.20;99.90
27954;DHT22;15290;48.148;17.106;2022-12-07T07:35:36;6.20;99.90
27954;DHT22;15290;48.148;17.106;2022-12-07T07:38:02;6.30;99.90
27954;DHT22;15290;48.148;17.106;2022-12-07T07:40:28;6.30;99.90
27954;DHT22;15290;48.148;17.106;2022-12-07T07:42:55;6.30;99.90
27954;DHT22;15290;48.148;17.106;2022-12-07T07:45:22;6.30;99.90
27954;DHT22;15290;48.148;17.106;2022-12-07T07:47:48;6.30;99.90
27954;DHT22;15290;48.148;17.106;2022-12-07T07:50:14;6.30;99.90
27954;DHT22;15290;48.148;17.106;2022-12-07T07:52:41;6.30;99.90
27954;DHT22;15290;48.148;17.106;2022-12-07T07:55:07;6.30;99.90
27954;DHT22;15290;48.148;17.106;2022-12-07T07:57:35;6.30;99.90
27954;DHT22;15290;48.148;17.106;2022-12-07T08:00:08;6.30;99.90
27954;DHT22;15290;48.148;17.106;2022-12-07T08:02:34;6.30;99.90
27954;DHT22;15290;48.148;17.106;2022-12-07T08:04:59;6.30;99.90
27954;DHT22;15290;48.148;17.106;2022-12-07T08:07:27;6.30;99.90
27954;DHT22;15290;48.148;17.106;2022-12-07T08:09:53;6.30;99.90
27954;DHT22;15290;48.148;17.106;2022-12-07T08:12:22;6.30;99.90
27954;DHT22;15290;48.148;17.106;2022-12-07T08:14:49;6.40;99.90
27954;DHT22;15290;48.148;17.106;2022-12-07T08:17:14;6.40;99.90
27954;DHT22;15290;48.148;17.106;2022-12-07T08:19:40;6.40;99.90
27954;DHT22;15290;48.148;17.106;2022-12-07T08:22:06;6.40;99.90
27954;DHT22;15290;48.148;17.106;2022-12-07T08:24:35;6.40;99.90
27954;DHT22;15290;48.148;17.106;2022-12-07T08:27:02;6.40;99.90
27954;DHT22;15290;48.148;17.106;2022-12-07T08:29:28;6.40;99.90
27954;DHT22;15290;48.148;17.106;2022-12-07T08:31:53;6.30;99.90
27954;DHT22;15290;48.148;17.106;2022-12-07T08:34:19;6.40;99.90
27954;DHT22;15290;48.148;17.106;2022-12-07T08:36:45;6.40;99.90
27954;DHT22;15290;48.148;17.106;2022-12-07T08:39:12;6.40;99.90
27954;DHT22;15290;48.148;17.106;2022-12-07T08:41:38;6.50;99.90
27954;DHT22;15290;48.148;17.106;2022-12-07T08:44:05;6.50;99.90
27954;DHT22;15290;48.148;17.106;2022-12-07T08:46:40;6.60;99.90
27954;DHT22;15290;48.148;17.106;2022-12-07T08:49:28;6.60;99.90
27954;DHT22;15290;48.148;17.106;2022-12-07T08:51:59;6.70;99.90
27954;DHT22;15290;48.148;17.106;2022-12-07T08:54:25;6.70;99.90
27954;DHT22;15290;48.148;17.106;2022-12-07T08:56:51;6.70;99.90
27954;DHT22;15290;48.148;17.106;2022-12-07T08:59:20;6.70;99.90
27954;DHT22;15290;48.148;17.106;2022-12-07T09:01:46;6.80;99.90
27954;DHT22;15290;48.148;17.106;2022-12-07T09:04:11;6.80;99.90
27954;DHT22;15290;48.148;17.106;2022-12-07T09:06:43;6.80;99.90
27954;DHT22;15290;48.148;17.106;2022-12-07T09:09:09;6.90;99.90
27954;DHT22;15290;48.148;17.106;2022-12-07T09:11:36;6.90;99.90
27954;DHT22;15290;48.148;17.106;2022-12-07T09:14:02;6.90;99.90
27954;DHT22;15290;48.148;17.106;2022-12-07T09:16:27;7.00;99.90
27954;DHT22;15290;48.148;17.106;2022-12-07T09:18:55;7.00;99.90
27954;DHT22;15290;48.148;17.106;2022-12-07T09:21:21;7.00;99.90
27954;DHT22;15290;48.148;17.106;2022-12-07T09:23:47;7.00;99.90
27954;DHT22;15290;48.148;17.106;2022-12-07T09:26:12;7.00;99.90
27954;DHT22;15290;48.148;17.106;2022-12-07T09:28:38;7.00;99.90
27954;DHT22;15290;48.148;17.106;2022-12-07T09:31:05;7.00;99.90
27954;DHT22;15290;48.148;17.106;2022-12-07T09:33:30;7.00;99.90
27954;DHT22;15290;48.148;17.106;2022-12-07T09:35:56;7.00;99.90
27954;DHT22;15290;48.148;17.106;2022-12-07T09:38:22;7.00;99.90
27954;DHT22;15290;48.148;17.106;2022-12-07T09:40:48;7.10;99.90
27954;DHT22;15290;48.148;17.106;2022-12-07T09:43:19;7.10;99.90
27954;DHT22;15290;48.148;17.106;2022-12-07T09:45:48;7.10;99.90
27954;DHT22;15290;48.148;17.106;2022-12-07T09:48:29;7.20;99.90
27954;DHT22;15290;48.148;17.106;2022-12-07T09:50:57;7.30;99.90
27954;DHT22;15290;48.148;17.106;2022-12-07T09:53:37;7.50;99.90
27954;DHT22;15290;48.148;17.106;2022-12-07T09:56:03;7.60;99.90
27954;DHT22;15290;48.148;17.106;2022-12-07T09:58:31;7.60;99.90
27954;DHT22;15290;48.148;17.106;2022-12-07T10:01:17;7.60;99.90
27954;DHT22;15290;48.148;17.106;2022-12-07T10:03:53;7.50;99.90
27954;DHT22;15290;48.148;17.106;2022-12-07T10:06:21;7.50;99.90
27954;DHT22;15290;48.148;17.106;2022-12-07T10:08:48;7.50;99.90
27954;DHT22;15290;48.148;17.106;2022-12-07T10:11:14;7.60;99.90
27954;DHT22;15290;48.148;17.106;2022-12-07T10:13:52;7.70;99.90
27954;DHT22;15290;48.148;17.106;2022-12-07T10:16:38;8.00;99.90
27954;DHT22;15290;48.148;17.106;2022-12-07T10:22:12;8.40;99.90
27954;DHT22;15290;48.148;17.106;2022-12-07T10:24:40;8.40;99.00
27954;DHT22;15290;48.148;17.106;2022-12-07T10:27:19;8.30;98.00
27954;DHT22;15290;48.148;17.106;2022-12-07T10:29:50;8.20;96.80
27954;DHT22;15290;48.148;17.106;2022-12-07T10:34:42;8.30;94.70
27954;DHT22;15290;48.148;17.106;2022-12-07T10:39:46;8.20;93.30
27954;DHT22;15290;48.148;17.106;2022-12-07T10:42:17;8.20;93.20
27954;DHT22;15290;48.148;17.106;2022-12-07T10:44:43;8.10;92.50
27954;DHT22;15290;48.148;17.106;2022-12-07T10:53:20;8.00;91.00
27954;DHT22;15290;48.148;17.106;2022-12-07T11:05:25;8.40;89.90
27954;DHT22;15290;48.148;17.106;2022-12-07T11:11:05;8.50;88.00
27954;DHT22;15290;48.148;17.106;2022-12-07T11:22:16;8.40;86.00
27954;DHT22;15290;48.148;17.106;2022-12-07T11:33:40;8.30;84.60
27954;DHT22;15290;48.148;17.106;2022-12-07T11:36:39;8.20;84.40
27954;DHT22;15290;48.148;17.106;2022-12-07T11:42:25;8.10;83.90
27954;DHT22;15290;48.148;17.106;2022-12-07T11:45:19;8.10;83.10
27954;DHT22;15290;48.148;17.106;2022-12-07T11:48:03;8.00;82.60
27954;DHT22;15290;48.148;17.106;2022-12-07T11:50:57;8.00;82.60
27954;DHT22;15290;48.148;17.106;2022-12-07T11:53:37;7.90;82.40
27954;DHT22;15290;48.148;17.106;2022-12-07T11:56:11;7.80;82.10
27954;DHT22;15290;48.148;17.106;2022-12-07T12:01:55;7.60;82.10
27954;DHT22;15290;48.148;17.106;2022-12-07T12:04:39;7.60;82.40
27954;DHT22;15290;48.148;17.106;2022-12-07T12:07:15;7.60;82.10
27954;DHT22;15290;48.148;17.106;2022-12-07T12:10:13;7.50;82.20
27954;DHT22;15290;48.148;17.106;2022-12-07T12:12:46;7.50;82.20
27954;DHT22;15290;48.148;17.106;2022-12-07T12:15:33;7.40;81.90
27954;DHT22;15290;48.148;17.106;2022-12-07T12:21:01;7.30;81.70
27954;DHT22;15290;48.148;17.106;2022-12-07T12:23:48;7.30;81.60
27954;DHT22;15290;48.148;17.106;2022-12-07T12:26:24;7.30;81.80
27954;DHT22;15290;48.148;17.106;2022-12-07T12:29:00;7.30;81.80
27954;DHT22;15290;48.148;17.106;2022-12-07T12:34:00;7.40;81.80
27954;DHT22;15290;48.148;17.106;2022-12-07T12:47:04;7.70;81.40
27954;DHT22;15290;48.148;17.106;2022-12-07T12:49:43;7.60;81.30
27954;DHT22;15290;48.148;17.106;2022-12-07T12:52:49;7.60;81.60
27954;DHT22;15290;48.148;17.106;2022-12-07T12:55:18;7.60;81.90
27954;DHT22;15290;48.148;17.106;2022-12-07T12:58:21;7.60;82.00
27954;DHT22;15290;48.148;17.106;2022-12-07T13:00:33;7.60;82.10
27954;DHT22;15290;48.148;17.106;2022-12-07T13:02:59;7.40;82.30
27954;DHT22;15290;48.148;17.106;2022-12-07T13:05:28;7.30;82.70
27954;DHT22;15290;48.148;17.106;2022-12-07T13:08:11;7.20;82.80
27954;DHT22;15290;48.148;17.106;2022-12-07T13:10:42;7.10;81.60
27954;DHT22;15290;48.148;17.106;2022-12-07T13:33:46;6.70;81.30
27954;DHT22;15290;48.148;17.106;2022-12-07T13:36:25;6.70;81.30
27954;DHT22;15290;48.148;17.106;2022-12-07T13:38:58;6.70;81.30
27954;DHT22;15290;48.148;17.106;2022-12-07T13:41:26;6.70;81.30
27954;DHT22;15290;48.148;17.106;2022-12-07T13:44:14;6.70;81.30
27954;DHT22;15290;48.148;17.106;2022-12-07T13:49:23;6.70;81.30
27954;DHT22;15290;48.148;17.106;2022-12-07T13:51:50;6.70;81.20
27954;DHT22;15290;48.148;17.106;2022-12-07T13:54:16;6.70;81.30
27954;DHT22;15290;48.148;17.106;2022-12-07T13:56:43;6.70;81.10
27954;DHT22;15290;48.148;17.106;2022-12-07T13:59:14;6.70;81.10
27954;DHT22;15290;48.148;17.106;2022-12-07T14:01:41;6.60;81.20
27954;DHT22;15290;48.148;17.106;2022-12-07T14:04:34;6.60;81.30
27954;DHT22;15290;48.148;17.106;2022-12-07T14:07:17;6.60;81.40
27954;DHT22;15290;48.148;17.106;2022-12-07T14:10:00;6.60;81.60
27954;DHT22;15290;48.148;17.106;2022-12-07T14:12:27;6.50;81.40
27954;DHT22;15290;48.148;17.106;2022-12-07T14:14:54;6.50;81.60
27954;DHT22;15290;48.148;17.106;2022-12-07T14:17:23;6.50;81.60
27954;DHT22;15290;48.148;17.106;2022-12-07T14:19:59;6.50;81.70
27954;DHT22;15290;48.148;17.106;2022-12-07T14:24:58;6.60;81.90
27954;DHT22;15290;48.148;17.106;2022-12-07T14:27:29;6.60;81.90
27954;DHT22;15290;48.148;17.106;2022-12-07T14:30:00;6.60;81.90
27954;DHT22;15290;48.148;17.106;2022-12-07T14:32:28;6.60;81.90
27954;DHT22;15290;48.148;17.106;2022-12-07T14:37:28;6.50;82.40
27954;DHT22;15290;48.148;17.106;2022-12-07T14:39:54;6.50;82.50
27954;DHT22;15290;48.148;17.106;2022-12-07T14:42:20;6.40;82.70
27954;DHT22;15290;48.148;17.106;2022-12-07T14:44:47;6.40;83.00
27954;DHT22;15290;48.148;17.106;2022-12-07T14:47:12;6.40;83.20
27954;DHT22;15290;48.148;17.106;2022-12-07T14:49:38;6.30;83.30
27954;DHT22;15290;48.148;17.106;2022-12-07T14:52:05;6.30;83.60
27954;DHT22;15290;48.148;17.106;2022-12-07T14:54:34;6.20;83.70
27954;DHT22;15290;48.148;17.106;2022-12-07T14:57:01;6.20;83.90
27954;DHT22;15290;48.148;17.106;2022-12-07T14:59:27;6.10;84.20
27954;DHT22;15290;48.148;17.106;2022-12-07T15:01:53;6.10;84.40
27954;DHT22;15290;48.148;17.106;2022-12-07T15:04:19;6.10;84.60
27954;DHT22;15290;48.148;17.106;2022-12-07T15:06:56;6.10;84.80
27954;DHT22;15290;48.148;17.106;2022-12-07T15:09:21;6.10;84.90
27954;DHT22;15290;48.148;17.106;2022-12-07T15:11:47;6.10;85.00
27954;DHT22;15290;48.148;17.106;2022-12-07T15:14:13;6.10;85.10
27954;DHT22;15290;48.148;17.106;2022-12-07T15:16:41;6.10;85.40
27954;DHT22;15290;48.148;17.106;2022-12-07T15:19:15;6.00;85.50
27954;DHT22;15290;48.148;17.106;2022-12-07T15:21:42;6.00;85.50
27954;DHT22;15290;48.148;17.106;2022-12-07T15:24:12;6.00;85.60
27954;DHT22;15290;48.148;17.106;2022-12-07T15:26:39;6.00;85.80
27954;DHT22;15290;48.148;17.106;2022-12-07T15:29:06;6.00;85.90
27954;DHT22;15290;48.148;17.106;2022-12-07T15:31:32;5.90;86.00
27954;DHT22;15290;48.148;17.106;2022-12-07T15:33:58;5.90;87.00
27954;DHT22;15290;48.148;17.106;2022-12-07T15:36:27;5.80;86.50
27954;DHT22;15290;48.148;17.106;2022-12-07T15:38:53;5.80;86.70
27954;DHT22;15290;48.148;17.106;2022-12-07T15:41:19;5.80;86.90
27954;DHT22;15290;48.148;17.106;2022-12-07T15:43:46;5.80;87.20
27954;DHT22;15290;48.148;17.106;2022-12-07T15:46:39;5.70;87.30
27954;DHT22;15290;48.148;17.106;2022-12-07T15:49:23;5.80;87.70
27954;DHT22;15290;48.148;17.106;2022-12-07T15:51:49;5.80;87.60
27954;DHT22;15290;48.148;17.106;2022-12-07T15:54:22;5.80;87.70
27954;DHT22;15290;48.148;17.106;2022-12-07T15:56:48;5.80;87.70
27954;DHT22;15290;48.148;17.106;2022-12-07T15:59:15;5.80;87.70
27954;DHT22;15290;48.148;17.106;2022-12-07T16:01:41;5.80;87.80
27954;DHT22;15290;48.148;17.106;2022-12-07T16:04:08;5.80;88.00
27954;DHT22;15290;48.148;17.106;2022-12-07T16:06:34;5.70;88.10
27954;DHT22;15290;48.148;17.106;2022-12-07T16:09:00;5.70;88.20
27954;DHT22;15290;48.148;17.106;2022-12-07T16:11:26;5.70;88.30
27954;DHT22;15290;48.148;17.106;2022-12-07T16:13:52;5.70;88.40
27954;DHT22;15290;48.148;17.106;2022-12-07T16:16:18;5.70;88.60
27954;DHT22;15290;48.148;17.106;2022-12-07T16:18:46;5.70;89.40
27954;DHT22;15290;48.148;17.106;2022-12-07T16:21:12;5.70;88.80
27954;DHT22;15290;48.148;17.106;2022-12-07T16:23:39;5.70;88.80
27954;DHT22;15290;48.148;17.106;2022-12-07T16:26:11;5.70;88.80
27954;DHT22;15290;48.148;17.106;2022-12-07T16:28:37;5.80;88.80
27954;DHT22;15290;48.148;17.106;2022-12-07T16:31:06;5.90;88.70
27954;DHT22;15290;48.148;17.106;2022-12-07T16:33:34;5.90;88.60
27954;DHT22;15290;48.148;17.106;2022-12-07T16:36:00;5.90;88.50
27954;DHT22;15290;48.148;17.106;2022-12-07T16:38:26;5.90;88.50
27954;DHT22;15290;48.148;17.106;2022-12-07T16:40:53;5.90;88.40
27954;DHT22;15290;48.148;17.106;2022-12-07T16:43:18;6.00;89.20
27954;DHT22;15290;48.148;17.106;2022-12-07T16:45:46;6.00;88.50
27954;DHT22;15290;48.148;17.106;2022-12-07T16:48:16;6.00;88.50
27954;DHT22;15290;48.148;17.106;2022-12-07T16:50:43;6.00;88.40
27954;DHT22;15290;48.148;17.106;2022-12-07T16:53:10;6.00;88.30
27954;DHT22;15290;48.148;17.106;2022-12-07T16:55:45;6.00;88.50
27954;DHT22;15290;48.148;17.106;2022-12-07T16:58:14;6.00;88.40
27954;DHT22;15290;48.148;17.106;2022-12-07T17:00:42;6.10;88.40
27954;DHT22;15290;48.148;17.106;2022-12-07T17:03:08;6.10;88.30
27954;DHT22;15290;48.148;17.106;2022-12-07T17:05:41;6.00;88.30
27954;DHT22;15290;48.148;17.106;2022-12-07T17:08:07;6.00;88.40
27954;DHT22;15290;48.148;17.106;2022-12-07T17:10:34;6.00;88.50
27954;DHT22;15290;48.148;17.106;2022-12-07T17:13:01;6.00;88.60
27954;DHT22;15290;48.148;17.106;2022-12-07T17:15:27;6.00;88.70
27954;DHT22;15290;48.148;17.106;2022-12-07T17:17:58;6.00;88.80
27954;DHT22;15290;48.148;17.106;2022-12-07T17:20:26;6.00;88.90
27954;DHT22;15290;48.148;17.106;2022-12-07T17:22:52;6.10;89.00
27954;DHT22;15290;48.148;17.106;2022-12-07T17:25:18;6.10;89.10
27954;DHT22;15290;48.148;17.106;2022-12-07T17:27:45;6.10;89.10
27954;DHT22;15290;48.148;17.106;2022-12-07T17:30:12;6.00;89.20
27954;DHT22;15290;48.148;17.106;2022-12-07T17:32:38;6.10;89.40
27954;DHT22;15290;48.148;17.106;2022-12-07T17:35:05;6.00;89.30
27954;DHT22;15290;48.148;17.106;2022-12-07T17:37:31;6.00;89.40
27954;DHT22;15290;48.148;17.106;2022-12-07T17:39:57;6.10;89.50
27954;DHT22;15290;48.148;17.106;2022-12-07T17:42:26;6.10;89.60
27954;DHT22;15290;48.148;17.106;2022-12-07T17:45:03;6.10;89.70